Jacksonville, NC

10:04 AM EDT am 23. Juni 2017 (GMT -0400)
Williams Farm | | Change Station

Höhe 20 ft 34.77 °N, 77.45 °W | Updated 6 seconds ago

Bedeckt
Bedeckt
80.6 °F
gefühlte 87 °F
N
2.9
Wind Wechselnd Wind aus West-Nordwest
Gusts 4.9 mph

Heute
Max. -- | schwach -- °F
--% Regenrisiko
Gestern
Max. -- | schwach -- °F
Precip. -- inch
Druck 30.03 inch
Sichtweite 10.0 Meilen
Wolken Wolkig 1200 ft
Bedeckt 2200 ft
Hitzeindex 87 °F
Taupunkt 77 °F
Feuchtigkeit 88%
Regen 0.00 inch
Schneehöhe Nicht verfügbar..
5:57 AM 8:26 PM
Letztes Viertel, 0% visible
METAR KNCA 231356Z 24010KT 10SM BKN012 OVC022 28/26 A3002 RMK AO2 SLP169 T02780256
Druck 30.03 inch
Sichtweite 10.0 Meilen
Wolken Wolkig 1200 ft
Bedeckt 2200 ft
Hitzeindex 87 °F
Taupunkt 77 °F
Feuchtigkeit 88%
Regen 0.00 inch
Schneehöhe Nicht verfügbar..
5:57 AM 8:26 PM
Letztes Viertel, 0% visible
METAR KNCA 231356Z 24010KT 10SM BKN012 OVC022 28/26 A3002 RMK AO2 SLP169 T02780256

Get Severe Weather Alerts

Thanks for signing up!

Be on the lookout for a verification email in your inbox.

You'll start receiving the daily forecast at 6 AM.

×

10-Day Weather Forecast

Almanac

Astronomie

Jun. 23, 2017 Aufgang Untergang
Genaue Zeit
Bürgerliche Dämmerung
Nautische Dämmerung
Astronomische Dämmerung
Mond
Länge des sichtbaren Lichts
Tageslänge
Tomorrow will be .
, % of the Moon is Illuminated

Heutige Rekorde

State Highs State Lows

Community

WunderPhotos

Category 6

Welcome to Category 6. This is the collective home for Weather Underground's featured writeups by Dr. Jeff Masters (right), Bob Henson (left), Chris Burt, and other regular contributors.

Nearby

Luftqualität

  Luftqualität LQ Index Schadstoff
Not available.

Schneehöhe

Station Depth Höhe

Erdbebenaktivität

Stadt Distance Mag. Time & Date
Minimum magnitude displayed is 2.5.

küstennahe Wassertemperaturen

Ort Temperatur

Stations

Wetterstationen in der Umgebung

Stationsstandort Temp. Windchill Taupunkt Feuchtigkeit Wind Precip. Höhe Aktualisiert Art
                   

Watches & Warnings

There are currently no watches in effect.